sensor_id;sensor_type;location;lat;lon;timestamp;P1;durP1;ratioP1;P2;durP2;ratioP2
64500;SDS011;50874;24.150;-110.320;2023-03-05T00:01:48;19.50;;;2.67;;
64500;SDS011;50874;24.150;-110.320;2023-03-05T00:04:14;23.00;;;2.75;;
64500;SDS011;50874;24.150;-110.320;2023-03-05T00:06:41;23.70;;;2.95;;
64500;SDS011;50874;24.150;-110.320;2023-03-05T00:09:08;21.20;;;2.33;;
64500;SDS011;50874;24.150;-110.320;2023-03-05T00:11:34;17.15;;;2.72;;
64500;SDS011;50874;24.150;-110.320;2023-03-05T00:14:02;7.18;;;1.80;;
64500;SDS011;50874;24.150;-110.320;2023-03-05T00:16:29;9.52;;;1.30;;
64500;SDS011;50874;24.150;-110.320;2023-03-05T00:18:56;12.80;;;1.70;;
64500;SDS011;50874;24.150;-110.320;2023-03-05T00:21:25;13.55;;;2.35;;
64500;SDS011;50874;24.150;-110.320;2023-03-05T00:23:57;14.18;;;2.10;;
64500;SDS011;50874;24.150;-110.320;2023-03-05T00:26:25;13.45;;;1.60;;
64500;SDS011;50874;24.150;-110.320;2023-03-05T00:28:54;15.77;;;2.35;;
64500;SDS011;50874;24.150;-110.320;2023-03-05T00:31:25;17.35;;;1.60;;
64500;SDS011;50874;24.150;-110.320;2023-03-05T00:33:57;7.68;;;1.00;;
64500;SDS011;50874;24.150;-110.320;2023-03-05T00:36:25;17.42;;;1.90;;
64500;SDS011;50874;24.150;-110.320;2023-03-05T00:38:52;15.32;;;2.53;;
64500;SDS011;50874;24.150;-110.320;2023-03-05T00:41:19;23.45;;;2.70;;
64500;SDS011;50874;24.150;-110.320;2023-03-05T00:43:46;22.58;;;3.80;;
64500;SDS011;50874;24.150;-110.320;2023-03-05T00:46:13;21.02;;;2.08;;
64500;SDS011;50874;24.150;-110.320;2023-03-05T00:48:40;17.92;;;1.92;;
64500;SDS011;50874;24.150;-110.320;2023-03-05T00:51:06;44.50;;;5.03;;
64500;SDS011;50874;24.150;-110.320;2023-03-05T00:53:33;16.75;;;1.90;;
64500;SDS011;50874;24.150;-110.320;2023-03-05T00:56:00;8.63;;;1.35;;
64500;SDS011;50874;24.150;-110.320;2023-03-05T00:58:26;14.10;;;2.03;;
64500;SDS011;50874;24.150;-110.320;2023-03-05T01:00:57;7.72;;;1.50;;
64500;SDS011;50874;24.150;-110.320;2023-03-05T01:03:25;18.20;;;1.92;;
64500;SDS011;50874;24.150;-110.320;2023-03-05T01:05:52;24.30;;;3.08;;
64500;SDS011;50874;24.150;-110.320;2023-03-05T01:08:19;22.42;;;2.42;;
64500;SDS011;50874;24.150;-110.320;2023-03-05T01:10:45;37.10;;;4.38;;
64500;SDS011;50874;24.150;-110.320;2023-03-05T01:13:12;20.92;;;2.28;;
64500;SDS011;50874;24.150;-110.320;2023-03-05T01:15:38;20.63;;;2.60;;
64500;SDS011;50874;24.150;-110.320;2023-03-05T01:18:05;28.52;;;2.60;;
64500;SDS011;50874;24.150;-110.320;2023-03-05T01:20:31;22.05;;;2.75;;
64500;SDS011;50874;24.150;-110.320;2023-03-05T01:22:58;17.30;;;3.03;;
64500;SDS011;50874;24.150;-110.320;2023-03-05T01:25:26;8.95;;;2.10;;
64500;SDS011;50874;24.150;-110.320;2023-03-05T01:27:53;30.13;;;4.07;;
64500;SDS011;50874;24.150;-110.320;2023-03-05T01:30:19;23.00;;;2.25;;
64500;SDS011;50874;24.150;-110.320;2023-03-05T01:32:46;21.77;;;2.10;;
64500;SDS011;50874;24.150;-110.320;2023-03-05T01:35:19;20.20;;;3.50;;
64500;SDS011;50874;24.150;-110.320;2023-03-05T01:37:47;26.30;;;3.35;;
64500;SDS011;50874;24.150;-110.320;2023-03-05T01:40:15;27.15;;;2.55;;
64500;SDS011;50874;24.150;-110.320;2023-03-05T01:42:54;26.67;;;3.08;;
64500;SDS011;50874;24.150;-110.320;2023-03-05T01:45:25;27.88;;;4.70;;
64500;SDS011;50874;24.150;-110.320;2023-03-05T01:47:55;32.53;;;3.30;;
64500;SDS011;50874;24.150;-110.320;2023-03-05T01:50:22;25.90;;;3.17;;
64500;SDS011;50874;24.150;-110.320;2023-03-05T01:53:01;29.02;;;4.65;;
64500;SDS011;50874;24.150;-110.320;2023-03-05T01:55:30;24.67;;;4.72;;
64500;SDS011;50874;24.150;-110.320;2023-03-05T01:58:05;20.13;;;4.03;;
64500;SDS011;50874;24.150;-110.320;2023-03-05T02:00:53;39.90;;;5.13;;
64500;SDS011;50874;24.150;-110.320;2023-03-05T02:03:21;28.42;;;2.67;;
64500;SDS011;50874;24.150;-110.320;2023-03-05T02:05:49;28.10;;;3.28;;
64500;SDS011;50874;24.150;-110.320;2023-03-05T02:08:17;53.40;;;4.95;;
64500;SDS011;50874;24.150;-110.320;2023-03-05T02:10:47;35.50;;;3.45;;
64500;SDS011;50874;24.150;-110.320;2023-03-05T02:13:17;13.35;;;3.13;;
64500;SDS011;50874;24.150;-110.320;2023-03-05T02:15:47;17.83;;;2.28;;
64500;SDS011;50874;24.150;-110.320;2023-03-05T02:18:15;17.85;;;2.75;;
64500;SDS011;50874;24.150;-110.320;2023-03-05T02:20:47;12.07;;;2.95;;
64500;SDS011;50874;24.150;-110.320;2023-03-05T02:23:16;16.65;;;2.38;;
64500;SDS011;50874;24.150;-110.320;2023-03-05T02:25:43;17.70;;;2.33;;
64500;SDS011;50874;24.150;-110.320;2023-03-05T02:30:47;18.30;;;2.50;;
64500;SDS011;50874;24.150;-110.320;2023-03-05T02:33:14;24.85;;;3.08;;
64500;SDS011;50874;24.150;-110.320;2023-03-05T02:35:41;18.55;;;3.05;;
64500;SDS011;50874;24.150;-110.320;2023-03-05T02:38:09;16.08;;;2.63;;
64500;SDS011;50874;24.150;-110.320;2023-03-05T02:40:36;8.40;;;2.28;;
64500;SDS011;50874;24.150;-110.320;2023-03-05T02:43:03;25.70;;;3.38;;
64500;SDS011;50874;24.150;-110.320;2023-03-05T02:45:30;21.33;;;3.20;;
64500;SDS011;50874;24.150;-110.320;2023-03-05T02:47:56;17.40;;;3.63;;
64500;SDS011;50874;24.150;-110.320;2023-03-05T02:50:23;23.63;;;4.22;;
64500;SDS011;50874;24.150;-110.320;2023-03-05T02:52:51;22.27;;;3.75;;
64500;SDS011;50874;24.150;-110.320;2023-03-05T02:55:17;12.07;;;3.47;;
64500;SDS011;50874;24.150;-110.320;2023-03-05T02:57:44;17.38;;;3.47;;
64500;SDS011;50874;24.150;-110.320;2023-03-05T03:00:11;16.55;;;3.15;;
64500;SDS011;50874;24.150;-110.320;2023-03-05T03:02:38;24.27;;;3.45;;
64500;SDS011;50874;24.150;-110.320;2023-03-05T03:05:04;60.58;;;6.60;;
64500;SDS011;50874;24.150;-110.320;2023-03-05T03:07:31;57.88;;;5.90;;
64500;SDS011;50874;24.150;-110.320;2023-03-05T03:10:00;47.05;;;6.00;;
64500;SDS011;50874;24.150;-110.320;2023-03-05T03:12:27;55.90;;;5.45;;
64500;SDS011;50874;24.150;-110.320;2023-03-05T03:14:53;51.83;;;5.28;;
64500;SDS011;50874;24.150;-110.320;2023-03-05T03:17:20;38.22;;;4.70;;
64500;SDS011;50874;24.150;-110.320;2023-03-05T03:19:46;66.63;;;6.60;;
64500;SDS011;50874;24.150;-110.320;2023-03-05T03:22:13;114.80;;;10.88;;
64500;SDS011;50874;24.150;-110.320;2023-03-05T03:24:42;47.80;;;6.53;;
64500;SDS011;50874;24.150;-110.320;2023-03-05T03:27:09;180.95;;;16.17;;
64500;SDS011;50874;24.150;-110.320;2023-03-05T03:29:36;113.63;;;11.27;;
64500;SDS011;50874;24.150;-110.320;2023-03-05T03:32:03;107.25;;;13.27;;
64500;SDS011;50874;24.150;-110.320;2023-03-05T03:34:29;56.80;;;8.63;;
64500;SDS011;50874;24.150;-110.320;2023-03-05T03:36:56;87.70;;;10.35;;
64500;SDS011;50874;24.150;-110.320;2023-03-05T03:39:22;160.75;;;18.83;;
64500;SDS011;50874;24.150;-110.320;2023-03-05T03:41:50;141.15;;;16.70;;
64500;SDS011;50874;24.150;-110.320;2023-03-05T03:44:18;114.38;;;12.35;;
64500;SDS011;50874;24.150;-110.320;2023-03-05T03:46:46;81.03;;;10.70;;
64500;SDS011;50874;24.150;-110.320;2023-03-05T03:49:15;169.35;;;20.45;;
64500;SDS011;50874;24.150;-110.320;2023-03-05T03:51:44;63.42;;;9.13;;
64500;SDS011;50874;24.150;-110.320;2023-03-05T03:54:12;39.13;;;4.95;;
64500;SDS011;50874;24.150;-110.320;2023-03-05T03:56:39;32.55;;;3.90;;
64500;SDS011;50874;24.150;-110.320;2023-03-05T03:59:06;23.10;;;3.47;;
64500;SDS011;50874;24.150;-110.320;2023-03-05T04:01:33;26.00;;;4.28;;
64500;SDS011;50874;24.150;-110.320;2023-03-05T04:04:00;14.48;;;3.90;;
64500;SDS011;50874;24.150;-110.320;2023-03-05T04:06:26;21.63;;;3.60;;
64500;SDS011;50874;24.150;-110.320;2023-03-05T04:08:52;24.40;;;3.35;;
64500;SDS011;50874;24.150;-110.320;2023-03-05T04:11:19;32.97;;;4.03;;
64500;SDS011;50874;24.150;-110.320;2023-03-05T04:13:46;24.02;;;2.85;;
64500;SDS011;50874;24.150;-110.320;2023-03-05T04:16:13;12.68;;;2.70;;
64500;SDS011;50874;24.150;-110.320;2023-03-05T04:18:39;21.38;;;3.22;;
64500;SDS011;50874;24.150;-110.320;2023-03-05T04:21:07;16.20;;;2.70;;
64500;SDS011;50874;24.150;-110.320;2023-03-05T04:23:33;14.55;;;2.40;;
64500;SDS011;50874;24.150;-110.320;2023-03-05T04:26:00;23.58;;;3.15;;
64500;SDS011;50874;24.150;-110.320;2023-03-05T04:28:26;17.77;;;2.95;;
64500;SDS011;50874;24.150;-110.320;2023-03-05T04:30:53;12.52;;;2.53;;
64500;SDS011;50874;24.150;-110.320;2023-03-05T04:33:20;18.33;;;2.05;;
64500;SDS011;50874;24.150;-110.320;2023-03-05T04:35:46;12.95;;;2.83;;
64500;SDS011;50874;24.150;-110.320;2023-03-05T04:38:13;13.30;;;2.78;;
64500;SDS011;50874;24.150;-110.320;2023-03-05T04:40:39;28.63;;;2.72;;
64500;SDS011;50874;24.150;-110.320;2023-03-05T04:43:06;20.83;;;2.65;;
64500;SDS011;50874;24.150;-110.320;2023-03-05T04:45:32;17.52;;;3.22;;
64500;SDS011;50874;24.150;-110.320;2023-03-05T04:47:59;15.07;;;2.88;;
64500;SDS011;50874;24.150;-110.320;2023-03-05T04:50:26;15.13;;;2.33;;
64500;SDS011;50874;24.150;-110.320;2023-03-05T04:52:52;17.10;;;2.85;;
64500;SDS011;50874;24.150;-110.320;2023-03-05T04:55:18;12.57;;;2.38;;
64500;SDS011;50874;24.150;-110.320;2023-03-05T04:57:45;17.50;;;2.72;;
64500;SDS011;50874;24.150;-110.320;2023-03-05T05:00:12;8.25;;;2.58;;
64500;SDS011;50874;24.150;-110.320;2023-03-05T05:02:44;22.60;;;2.90;;
64500;SDS011;50874;24.150;-110.320;2023-03-05T05:05:15;29.70;;;3.83;;
64500;SDS011;50874;24.150;-110.320;2023-03-05T05:07:46;12.80;;;2.50;;
64500;SDS011;50874;24.150;-110.320;2023-03-05T05:10:13;14.60;;;2.38;;
64500;SDS011;50874;24.150;-110.320;2023-03-05T05:12:41;13.50;;;2.63;;
64500;SDS011;50874;24.150;-110.320;2023-03-05T05:15:08;28.88;;;3.40;;
64500;SDS011;50874;24.150;-110.320;2023-03-05T05:17:36;15.48;;;2.40;;
64500;SDS011;50874;24.150;-110.320;2023-03-05T05:20:03;18.13;;;2.97;;
64500;SDS011;50874;24.150;-110.320;2023-03-05T05:22:31;15.45;;;2.13;;
64500;SDS011;50874;24.150;-110.320;2023-03-05T05:24:58;15.68;;;2.50;;
64500;SDS011;50874;24.150;-110.320;2023-03-05T05:27:25;8.23;;;2.33;;
64500;SDS011;50874;24.150;-110.320;2023-03-05T05:29:51;31.48;;;3.55;;
64500;SDS011;50874;24.150;-110.320;2023-03-05T05:32:19;10.68;;;2.78;;
64500;SDS011;50874;24.150;-110.320;2023-03-05T05:34:47;10.70;;;2.03;;
64500;SDS011;50874;24.150;-110.320;2023-03-05T05:37:14;40.97;;;4.72;;
64500;SDS011;50874;24.150;-110.320;2023-03-05T05:39:40;52.60;;;6.45;;
64500;SDS011;50874;24.150;-110.320;2023-03-05T05:42:07;37.20;;;4.80;;
64500;SDS011;50874;24.150;-110.320;2023-03-05T05:44:33;28.13;;;3.65;;
64500;SDS011;50874;24.150;-110.320;2023-03-05T05:47:00;123.60;;;10.32;;
64500;SDS011;50874;24.150;-110.320;2023-03-05T05:49:29;26.30;;;2.85;;
64500;SDS011;50874;24.150;-110.320;2023-03-05T05:51:58;17.15;;;3.25;;
64500;SDS011;50874;24.150;-110.320;2023-03-05T05:54:24;23.55;;;2.42;;
64500;SDS011;50874;24.150;-110.320;2023-03-05T05:56:51;16.25;;;2.40;;
64500;SDS011;50874;24.150;-110.320;2023-03-05T05:59:18;34.47;;;3.90;;
64500;SDS011;50874;24.150;-110.320;2023-03-05T06:01:44;32.78;;;4.07;;
64500;SDS011;50874;24.150;-110.320;2023-03-05T06:04:11;35.05;;;2.97;;
64500;SDS011;50874;24.150;-110.320;2023-03-05T06:06:38;32.65;;;4.07;;
64500;SDS011;50874;24.150;-110.320;2023-03-05T06:09:04;19.65;;;2.55;;
64500;SDS011;50874;24.150;-110.320;2023-03-05T06:11:31;26.63;;;3.22;;
64500;SDS011;50874;24.150;-110.320;2023-03-05T06:13:58;25.23;;;3.25;;
64500;SDS011;50874;24.150;-110.320;2023-03-05T06:16:27;17.60;;;3.30;;
64500;SDS011;50874;24.150;-110.320;2023-03-05T06:18:54;13.05;;;2.50;;
64500;SDS011;50874;24.150;-110.320;2023-03-05T06:21:20;18.13;;;2.15;;
64500;SDS011;50874;24.150;-110.320;2023-03-05T06:23:48;15.85;;;2.30;;
64500;SDS011;50874;24.150;-110.320;2023-03-05T06:26:16;13.52;;;2.47;;
64500;SDS011;50874;24.150;-110.320;2023-03-05T06:28:44;16.73;;;2.17;;
64500;SDS011;50874;24.150;-110.320;2023-03-05T06:31:12;6.88;;;1.58;;
64500;SDS011;50874;24.150;-110.320;2023-03-05T06:33:41;14.65;;;2.55;;
64500;SDS011;50874;24.150;-110.320;2023-03-05T06:36:08;25.50;;;3.33;;
64500;SDS011;50874;24.150;-110.320;2023-03-05T06:38:37;24.90;;;4.72;;
64500;SDS011;50874;24.150;-110.320;2023-03-05T06:41:08;18.13;;;2.60;;
64500;SDS011;50874;24.150;-110.320;2023-03-05T06:43:38;17.48;;;3.15;;
64500;SDS011;50874;24.150;-110.320;2023-03-05T06:46:12;18.48;;;3.13;;
64500;SDS011;50874;24.150;-110.320;2023-03-05T06:48:42;31.33;;;3.72;;
64500;SDS011;50874;24.150;-110.320;2023-03-05T06:51:13;29.70;;;3.88;;
64500;SDS011;50874;24.150;-110.320;2023-03-05T06:53:41;28.60;;;3.65;;
64500;SDS011;50874;24.150;-110.320;2023-03-05T06:56:08;25.02;;;3.90;;
64500;SDS011;50874;24.150;-110.320;2023-03-05T06:58:35;29.75;;;4.43;;
64500;SDS011;50874;24.150;-110.320;2023-03-05T07:01:03;18.73;;;3.58;;
64500;SDS011;50874;24.150;-110.320;2023-03-05T07:03:32;18.80;;;3.28;;
64500;SDS011;50874;24.150;-110.320;2023-03-05T07:06:03;24.80;;;3.10;;
64500;SDS011;50874;24.150;-110.320;2023-03-05T07:08:34;18.50;;;3.17;;
64500;SDS011;50874;24.150;-110.320;2023-03-05T07:11:01;27.65;;;3.13;;
64500;SDS011;50874;24.150;-110.320;2023-03-05T07:13:28;24.42;;;3.42;;
64500;SDS011;50874;24.150;-110.320;2023-03-05T07:15:55;15.75;;;2.65;;
64500;SDS011;50874;24.150;-110.320;2023-03-05T07:18:21;11.52;;;3.17;;
64500;SDS011;50874;24.150;-110.320;2023-03-05T07:20:48;15.77;;;3.00;;
64500;SDS011;50874;24.150;-110.320;2023-03-05T07:23:14;30.70;;;4.95;;
64500;SDS011;50874;24.150;-110.320;2023-03-05T07:25:41;21.58;;;3.45;;
64500;SDS011;50874;24.150;-110.320;2023-03-05T07:28:08;17.02;;;2.55;;
64500;SDS011;50874;24.150;-110.320;2023-03-05T07:30:34;7.85;;;1.60;;
64500;SDS011;50874;24.150;-110.320;2023-03-05T07:33:01;15.00;;;1.90;;
64500;SDS011;50874;24.150;-110.320;2023-03-05T07:35:27;18.80;;;2.28;;
64500;SDS011;50874;24.150;-110.320;2023-03-05T07:37:54;15.55;;;2.22;;
64500;SDS011;50874;24.150;-110.320;2023-03-05T07:40:20;11.75;;;1.85;;
64500;SDS011;50874;24.150;-110.320;2023-03-05T07:42:47;12.20;;;2.28;;
64500;SDS011;50874;24.150;-110.320;2023-03-05T07:45:13;7.55;;;1.52;;
64500;SDS011;50874;24.150;-110.320;2023-03-05T07:47:40;17.17;;;2.50;;
64500;SDS011;50874;24.150;-110.320;2023-03-05T07:50:07;21.25;;;1.85;;
64500;SDS011;50874;24.150;-110.320;2023-03-05T07:52:33;17.90;;;2.30;;
64500;SDS011;50874;24.150;-110.320;2023-03-05T07:55:00;9.45;;;2.03;;
64500;SDS011;50874;24.150;-110.320;2023-03-05T07:57:28;10.85;;;1.58;;
64500;SDS011;50874;24.150;-110.320;2023-03-05T07:59:58;14.10;;;2.22;;
64500;SDS011;50874;24.150;-110.320;2023-03-05T08:02:24;29.33;;;4.38;;
64500;SDS011;50874;24.150;-110.320;2023-03-05T08:04:51;24.45;;;2.17;;
64500;SDS011;50874;24.150;-110.320;2023-03-05T08:07:17;26.83;;;2.38;;
64500;SDS011;50874;24.150;-110.320;2023-03-05T08:09:44;79.53;;;6.93;;
64500;SDS011;50874;24.150;-110.320;2023-03-05T08:12:10;8.50;;;1.73;;
64500;SDS011;50874;24.150;-110.320;2023-03-05T08:14:36;14.60;;;2.03;;
64500;SDS011;50874;24.150;-110.320;2023-03-05T08:17:03;11.48;;;1.33;;
64500;SDS011;50874;24.150;-110.320;2023-03-05T08:19:31;9.27;;;1.52;;
64500;SDS011;50874;24.150;-110.320;2023-03-05T08:21:58;13.27;;;1.90;;
64500;SDS011;50874;24.150;-110.320;2023-03-05T08:24:24;9.05;;;1.67;;
64500;SDS011;50874;24.150;-110.320;2023-03-05T08:26:54;11.90;;;1.75;;
64500;SDS011;50874;24.150;-110.320;2023-03-05T08:29:21;29.42;;;2.75;;
64500;SDS011;50874;24.150;-110.320;2023-03-05T08:31:48;27.85;;;3.72;;
64500;SDS011;50874;24.150;-110.320;2023-03-05T08:34:15;10.68;;;2.00;;
64500;SDS011;50874;24.150;-110.320;2023-03-05T08:36:42;16.50;;;1.85;;
64500;SDS011;50874;24.150;-110.320;2023-03-05T08:39:08;10.82;;;1.48;;
64500;SDS011;50874;24.150;-110.320;2023-03-05T08:41:35;19.15;;;1.92;;
64500;SDS011;50874;24.150;-110.320;2023-03-05T08:44:02;9.35;;;1.75;;
64500;SDS011;50874;24.150;-110.320;2023-03-05T08:46:28;8.48;;;2.10;;
64500;SDS011;50874;24.150;-110.320;2023-03-05T08:48:55;16.65;;;1.80;;
64500;SDS011;50874;24.150;-110.320;2023-03-05T08:51:22;6.88;;;1.45;;
64500;SDS011;50874;24.150;-110.320;2023-03-05T08:53:50;7.53;;;1.48;;
64500;SDS011;50874;24.150;-110.320;2023-03-05T08:56:18;6.72;;;1.20;;
64500;SDS011;50874;24.150;-110.320;2023-03-05T08:58:45;17.10;;;1.58;;
64500;SDS011;50874;24.150;-110.320;2023-03-05T09:01:12;18.58;;;1.92;;
64500;SDS011;50874;24.150;-110.320;2023-03-05T09:03:39;10.52;;;1.77;;
64500;SDS011;50874;24.150;-110.320;2023-03-05T09:06:07;11.23;;;1.25;;
64500;SDS011;50874;24.150;-110.320;2023-03-05T09:08:34;17.45;;;2.50;;
64500;SDS011;50874;24.150;-110.320;2023-03-05T09:11:02;10.75;;;1.50;;
64500;SDS011;50874;24.150;-110.320;2023-03-05T09:13:30;7.80;;;1.35;;
64500;SDS011;50874;24.150;-110.320;2023-03-05T09:15:58;8.05;;;1.80;;
64500;SDS011;50874;24.150;-110.320;2023-03-05T09:18:26;26.33;;;2.88;;
64500;SDS011;50874;24.150;-110.320;2023-03-05T09:20:53;6.25;;;1.20;;
64500;SDS011;50874;24.150;-110.320;2023-03-05T09:23:20;10.18;;;1.45;;
64500;SDS011;50874;24.150;-110.320;2023-03-05T09:25:48;7.82;;;1.52;;
64500;SDS011;50874;24.150;-110.320;2023-03-05T09:28:15;14.52;;;2.03;;
64500;SDS011;50874;24.150;-110.320;2023-03-05T09:30:41;21.05;;;1.90;;
64500;SDS011;50874;24.150;-110.320;2023-03-05T09:33:08;18.35;;;1.60;;
64500;SDS011;50874;24.150;-110.320;2023-03-05T09:35:34;7.07;;;1.17;;
64500;SDS011;50874;24.150;-110.320;2023-03-05T09:38:02;18.30;;;2.28;;
64500;SDS011;50874;24.150;-110.320;2023-03-05T09:40:52;9.65;;;2.03;;
64500;SDS011;50874;24.150;-110.320;2023-03-05T09:48:49;6.65;;;1.50;;
64500;SDS011;50874;24.150;-110.320;2023-03-05T09:51:19;18.17;;;1.63;;
64500;SDS011;50874;24.150;-110.320;2023-03-05T09:54:31;11.40;;;2.67;;
64500;SDS011;50874;24.150;-110.320;2023-03-05T09:56:42;6.07;;;1.33;;
64500;SDS011;50874;24.150;-110.320;2023-03-05T10:02:01;6.25;;;1.17;;
64500;SDS011;50874;24.150;-110.320;2023-03-05T10:04:41;16.65;;;2.25;;
64500;SDS011;50874;24.150;-110.320;2023-03-05T10:07:29;16.85;;;1.88;;
64500;SDS011;50874;24.150;-110.320;2023-03-05T10:12:42;9.55;;;2.17;;
64500;SDS011;50874;24.150;-110.320;2023-03-05T10:15:15;4.55;;;1.10;;
64500;SDS011;50874;24.150;-110.320;2023-03-05T10:29:10;7.03;;;1.05;;
64500;SDS011;50874;24.150;-110.320;2023-03-05T10:31:59;8.98;;;1.90;;
64500;SDS011;50874;24.150;-110.320;2023-03-05T10:40:12;11.00;;;1.55;;
64500;SDS011;50874;24.150;-110.320;2023-03-05T10:46:05;8.05;;;1.40;;
64500;SDS011;50874;24.150;-110.320;2023-03-05T10:48:54;15.57;;;2.08;;
64500;SDS011;50874;24.150;-110.320;2023-03-05T10:51:36;8.75;;;1.70;;
64500;SDS011;50874;24.150;-110.320;2023-03-05T10:56:45;10.70;;;1.35;;
64500;SDS011;50874;24.150;-110.320;2023-03-05T10:59:12;5.75;;;0.82;;
64500;SDS011;50874;24.150;-110.320;2023-03-05T11:01:38;6.10;;;0.70;;
64500;SDS011;50874;24.150;-110.320;2023-03-05T11:04:06;4.28;;;1.23;;
64500;SDS011;50874;24.150;-110.320;2023-03-05T11:06:49;2.85;;;0.80;;
64500;SDS011;50874;24.150;-110.320;2023-03-05T11:14:35;1.27;;;0.70;;
64500;SDS011;50874;24.150;-110.320;2023-03-05T11:23:12;9.70;;;1.02;;
64500;SDS011;50874;24.150;-110.320;2023-03-05T11:25:56;9.48;;;1.10;;
64500;SDS011;50874;24.150;-110.320;2023-03-05T11:31:20;9.13;;;1.35;;
64500;SDS011;50874;24.150;-110.320;2023-03-05T11:33:56;4.82;;;0.93;;
64500;SDS011;50874;24.150;-110.320;2023-03-05T11:39:23;4.20;;;0.80;;
64500;SDS011;50874;24.150;-110.320;2023-03-05T11:42:02;12.20;;;1.30;;
64500;SDS011;50874;24.150;-110.320;2023-03-05T11:44:34;4.05;;;0.70;;
64500;SDS011;50874;24.150;-110.320;2023-03-05T11:47:26;5.63;;;0.85;;
64500;SDS011;50874;24.150;-110.320;2023-03-05T11:50:03;6.03;;;1.15;;
64500;SDS011;50874;24.150;-110.320;2023-03-05T11:52:45;9.88;;;1.42;;
64500;SDS011;50874;24.150;-110.320;2023-03-05T11:55:29;4.10;;;1.20;;
64500;SDS011;50874;24.150;-110.320;2023-03-05T12:00:51;22.67;;;2.20;;
64500;SDS011;50874;24.150;-110.320;2023-03-05T12:03:19;13.43;;;2.08;;
64500;SDS011;50874;24.150;-110.320;2023-03-05T12:05:55;4.57;;;0.75;;
64500;SDS011;50874;24.150;-110.320;2023-03-05T12:08:26;3.83;;;0.75;;
64500;SDS011;50874;24.150;-110.320;2023-03-05T12:10:58;6.28;;;0.63;;
64500;SDS011;50874;24.150;-110.320;2023-03-05T12:16:24;9.00;;;0.75;;
64500;SDS011;50874;24.150;-110.320;2023-03-05T12:21:41;13.07;;;0.90;;
64500;SDS011;50874;24.150;-110.320;2023-03-05T12:29:40;6.38;;;0.90;;
64500;SDS011;50874;24.150;-110.320;2023-03-05T12:35:03;2.50;;;0.70;;
64500;SDS011;50874;24.150;-110.320;2023-03-05T12:42:54;9.57;;;1.27;;
64500;SDS011;50874;24.150;-110.320;2023-03-05T12:45:32;8.75;;;1.02;;
64500;SDS011;50874;24.150;-110.320;2023-03-05T12:52:54;10.38;;;1.02;;
64500;SDS011;50874;24.150;-110.320;2023-03-05T12:58:02;2.60;;;0.52;;
64500;SDS011;50874;24.150;-110.320;2023-03-05T13:00:51;3.58;;;0.90;;
64500;SDS011;50874;24.150;-110.320;2023-03-05T13:03:29;6.03;;;1.38;;
64500;SDS011;50874;24.150;-110.320;2023-03-05T13:06:31;9.77;;;1.17;;
64500;SDS011;50874;24.150;-110.320;2023-03-05T13:09:15;6.00;;;0.77;;
64500;SDS011;50874;24.150;-110.320;2023-03-05T13:11:47;5.07;;;1.35;;
64500;SDS011;50874;24.150;-110.320;2023-03-05T13:14:33;5.57;;;0.85;;
64500;SDS011;50874;24.150;-110.320;2023-03-05T13:19:59;4.45;;;1.20;;
64500;SDS011;50874;24.150;-110.320;2023-03-05T13:22:30;8.77;;;1.20;;
64500;SDS011;50874;24.150;-110.320;2023-03-05T13:25:09;7.82;;;0.93;;
64500;SDS011;50874;24.150;-110.320;2023-03-05T13:27:44;3.63;;;0.93;;
64500;SDS011;50874;24.150;-110.320;2023-03-05T13:30:21;12.02;;;0.82;;
64500;SDS011;50874;24.150;-110.320;2023-03-05T13:32:50;5.28;;;0.55;;
64500;SDS011;50874;24.150;-110.320;2023-03-05T13:35:19;4.85;;;1.02;;
64500;SDS011;50874;24.150;-110.320;2023-03-05T13:37:45;13.05;;;1.45;;
64500;SDS011;50874;24.150;-110.320;2023-03-05T13:42:45;23.58;;;1.90;;
64500;SDS011;50874;24.150;-110.320;2023-03-05T13:47:59;7.32;;;1.20;;
64500;SDS011;50874;24.150;-110.320;2023-03-05T13:50:28;9.63;;;2.05;;
64500;SDS011;50874;24.150;-110.320;2023-03-05T13:53:16;7.40;;;0.80;;
64500;SDS011;50874;24.150;-110.320;2023-03-05T13:55:48;9.32;;;2.03;;
64500;SDS011;50874;24.150;-110.320;2023-03-05T14:03:57;10.77;;;0.98;;
64500;SDS011;50874;24.150;-110.320;2023-03-05T14:06:28;9.10;;;0.82;;
64500;SDS011;50874;24.150;-110.320;2023-03-05T14:09:01;11.85;;;1.10;;
64500;SDS011;50874;24.150;-110.320;2023-03-05T14:11:33;9.68;;;1.00;;
64500;SDS011;50874;24.150;-110.320;2023-03-05T14:14:04;13.43;;;1.48;;
64500;SDS011;50874;24.150;-110.320;2023-03-05T14:16:40;9.57;;;1.65;;
64500;SDS011;50874;24.150;-110.320;2023-03-05T14:19:32;13.48;;;1.48;;
64500;SDS011;50874;24.150;-110.320;2023-03-05T14:21:53;13.05;;;1.80;;
64500;SDS011;50874;24.150;-110.320;2023-03-05T14:24:20;39.78;;;3.35;;
64500;SDS011;50874;24.150;-110.320;2023-03-05T14:26:54;12.18;;;1.17;;
64500;SDS011;50874;24.150;-110.320;2023-03-05T14:29:22;12.07;;;1.70;;
64500;SDS011;50874;24.150;-110.320;2023-03-05T14:31:57;8.50;;;1.50;;
64500;SDS011;50874;24.150;-110.320;2023-03-05T14:34:28;13.07;;;1.70;;
64500;SDS011;50874;24.150;-110.320;2023-03-05T14:36:58;17.38;;;2.17;;
64500;SDS011;50874;24.150;-110.320;2023-03-05T14:39:31;20.00;;;1.80;;
64500;SDS011;50874;24.150;-110.320;2023-03-05T14:42:28;8.30;;;1.42;;
64500;SDS011;50874;24.150;-110.320;2023-03-05T14:45:12;23.15;;;3.40;;
64500;SDS011;50874;24.150;-110.320;2023-03-05T14:47:43;13.05;;;1.92;;
64500;SDS011;50874;24.150;-110.320;2023-03-05T14:50:13;13.65;;;1.50;;
64500;SDS011;50874;24.150;-110.320;2023-03-05T14:52:42;14.63;;;1.85;;
64500;SDS011;50874;24.150;-110.320;2023-03-05T14:55:13;21.55;;;2.28;;
64500;SDS011;50874;24.150;-110.320;2023-03-05T14:57:44;9.50;;;1.80;;
64500;SDS011;50874;24.150;-110.320;2023-03-05T15:00:18;10.18;;;2.10;;
64500;SDS011;50874;24.150;-110.320;2023-03-05T15:02:49;100.90;;;9.27;;
64500;SDS011;50874;24.150;-110.320;2023-03-05T15:05:16;19.05;;;3.58;;
64500;SDS011;50874;24.150;-110.320;2023-03-05T15:07:43;22.70;;;2.67;;
64500;SDS011;50874;24.150;-110.320;2023-03-05T15:10:12;16.83;;;2.05;;
64500;SDS011;50874;24.150;-110.320;2023-03-05T15:12:45;9.90;;;2.28;;
64500;SDS011;50874;24.150;-110.320;2023-03-05T15:15:12;16.65;;;2.60;;
64500;SDS011;50874;24.150;-110.320;2023-03-05T15:17:40;11.52;;;1.60;;
64500;SDS011;50874;24.150;-110.320;2023-03-05T15:20:27;15.25;;;2.00;;
64500;SDS011;50874;24.150;-110.320;2023-03-05T15:22:54;16.35;;;2.25;;
64500;SDS011;50874;24.150;-110.320;2023-03-05T15:25:22;14.23;;;2.70;;
64500;SDS011;50874;24.150;-110.320;2023-03-05T15:27:53;21.60;;;3.05;;
64500;SDS011;50874;24.150;-110.320;2023-03-05T15:30:21;42.17;;;5.03;;
64500;SDS011;50874;24.150;-110.320;2023-03-05T15:32:58;47.75;;;7.82;;
64500;SDS011;50874;24.150;-110.320;2023-03-05T15:35:27;55.03;;;7.05;;
64500;SDS011;50874;24.150;-110.320;2023-03-05T15:37:53;39.35;;;4.45;;
64500;SDS011;50874;24.150;-110.320;2023-03-05T15:40:20;54.78;;;6.15;;
64500;SDS011;50874;24.150;-110.320;2023-03-05T15:42:47;26.10;;;4.57;;
64500;SDS011;50874;24.150;-110.320;2023-03-05T15:45:13;30.63;;;3.75;;
64500;SDS011;50874;24.150;-110.320;2023-03-05T15:47:40;21.15;;;4.13;;
64500;SDS011;50874;24.150;-110.320;2023-03-05T15:50:07;13.82;;;2.63;;